createdAt,value
2023-04-08T00:00:01.137Z,15.70
2023-04-08T00:02:29.007Z,18.05
2023-04-08T00:04:56.848Z,18.23
2023-04-08T00:07:24.545Z,19.08
2023-04-08T00:09:52.072Z,18.17
2023-04-08T00:12:19.695Z,17.27
2023-04-08T00:14:48.697Z,16.95
2023-04-08T00:17:16.685Z,17.87
2023-04-08T00:19:44.511Z,16.33
2023-04-08T00:22:12.414Z,13.20
2023-04-08T00:24:40.427Z,17.05
2023-04-08T00:27:08.034Z,17.25
2023-04-08T00:29:35.679Z,16.97
2023-04-08T00:32:04.775Z,14.65
2023-04-08T00:34:32.455Z,14.88
2023-04-08T00:37:01.065Z,15.57
2023-04-08T00:39:28.675Z,19.05
2023-04-08T00:41:56.237Z,16.17
2023-04-08T00:44:24.020Z,14.55
2023-04-08T00:46:51.598Z,17.55
2023-04-08T00:49:20.837Z,15.15
2023-04-08T00:51:48.483Z,19.00
2023-04-08T00:54:16.088Z,16.50
2023-04-08T00:56:45.485Z,17.35
2023-04-08T00:59:13.152Z,16.90
2023-04-08T01:01:45.478Z,18.42
2023-04-08T01:04:22.262Z,16.08
2023-04-08T01:06:58.208Z,17.87
2023-04-08T01:09:31.093Z,19.45
2023-04-08T01:12:03.095Z,20.73
2023-04-08T01:14:32.704Z,17.98
2023-04-08T01:17:03.141Z,19.33
2023-04-08T01:19:34.063Z,17.70
2023-04-08T01:22:12.420Z,16.58
2023-04-08T01:24:44.212Z,17.42
2023-04-08T01:27:15.110Z,21.08
2023-04-08T01:29:44.177Z,19.05
2023-04-08T01:32:12.960Z,24.30
2023-04-08T01:34:41.973Z,20.10
2023-04-08T01:37:10.329Z,20.20
2023-04-08T01:39:41.125Z,18.60
2023-04-08T01:42:10.589Z,21.10
2023-04-08T01:44:41.103Z,18.97
2023-04-08T01:47:10.190Z,20.33
2023-04-08T01:49:39.093Z,21.33
2023-04-08T01:52:10.210Z,18.90
2023-04-08T01:54:38.806Z,18.73
2023-04-08T01:57:09.710Z,17.53
2023-04-08T01:59:41.573Z,19.70
2023-04-08T02:02:11.141Z,15.98
2023-04-08T02:04:39.882Z,18.40
2023-04-08T02:07:07.695Z,19.65
2023-04-08T02:09:35.416Z,18.17
2023-04-08T02:12:04.218Z,18.80
2023-04-08T02:14:31.832Z,17.80
2023-04-08T02:17:07.313Z,17.20
2023-04-08T02:19:41.028Z,19.48
2023-04-08T02:22:17.950Z,19.60
2023-04-08T02:24:46.983Z,17.80
2023-04-08T02:27:14.904Z,17.23
2023-04-08T02:29:43.303Z,17.92
2023-04-08T02:32:13.298Z,17.90
2023-04-08T02:34:41.583Z,19.67
2023-04-08T02:37:09.614Z,17.02
2023-04-08T02:39:37.261Z,19.45
2023-04-08T02:42:05.309Z,16.48
2023-04-08T02:44:32.889Z,17.20
2023-04-08T02:47:03.378Z,20.27
2023-04-08T02:49:32.279Z,15.43
2023-04-08T02:51:59.885Z,16.83
2023-04-08T02:54:27.416Z,15.73
2023-04-08T02:56:55.086Z,14.85
2023-04-08T02:59:22.854Z,19.40
2023-04-08T03:01:50.590Z,19.58
2023-04-08T03:04:18.241Z,19.33
2023-04-08T03:06:47.164Z,18.10
2023-04-08T03:09:14.798Z,18.55
2023-04-08T03:11:42.337Z,17.57
2023-04-08T03:14:09.897Z,18.08
2023-04-08T03:16:37.502Z,17.65
2023-04-08T03:19:05.380Z,16.77
2023-04-08T03:21:33.042Z,19.23
2023-04-08T03:24:01.956Z,20.70
2023-04-08T03:26:29.488Z,19.73
2023-04-08T03:28:57.045Z,19.27
2023-04-08T03:31:24.733Z,20.05
2023-04-08T03:33:52.321Z,20.13
2023-04-08T03:36:19.858Z,20.93
2023-04-08T03:38:47.482Z,21.65
2023-04-08T03:41:16.601Z,20.33
2023-04-08T03:43:44.153Z,27.63
2023-04-08T03:46:11.949Z,24.52
2023-04-08T03:48:39.626Z,20.60
2023-04-08T03:51:07.281Z,21.58
2023-04-08T03:53:35.123Z,22.63
2023-04-08T03:56:03.497Z,26.00
2023-04-08T03:58:32.845Z,25.35
2023-04-08T04:01:00.479Z,28.00
2023-04-08T04:03:28.477Z,24.45
2023-04-08T04:05:56.141Z,26.77
2023-04-08T04:08:23.782Z,28.63
2023-04-08T04:10:51.543Z,27.98
2023-04-08T04:13:19.516Z,22.57
2023-04-08T04:15:48.451Z,73.30
2023-04-08T04:18:16.159Z,29.27
2023-04-08T04:20:44.287Z,27.83
2023-04-08T04:23:11.907Z,29.80
2023-04-08T04:25:42.173Z,23.97
2023-04-08T04:28:10.056Z,26.25
2023-04-08T04:30:38.206Z,26.63
2023-04-08T04:33:07.742Z,31.02
2023-04-08T04:35:35.368Z,31.13
2023-04-08T04:38:02.961Z,31.60
2023-04-08T04:40:30.573Z,26.55
2023-04-08T04:42:58.114Z,30.90
2023-04-08T04:45:25.901Z,30.83
2023-04-08T04:47:53.508Z,25.75
2023-04-08T04:50:22.512Z,27.10
2023-04-08T04:52:50.250Z,34.38
2023-04-08T04:55:17.849Z,30.17
2023-04-08T04:57:45.505Z,27.02
2023-04-08T05:00:13.547Z,26.60
2023-04-08T05:02:41.283Z,32.23
2023-04-08T05:05:10.102Z,28.17
2023-04-08T05:07:39.748Z,24.58
2023-04-08T05:10:08.078Z,31.10
2023-04-08T05:12:37.090Z,28.52
2023-04-08T05:15:04.988Z,26.80
2023-04-08T05:17:32.636Z,29.38
2023-04-08T05:20:00.592Z,26.95
2023-04-08T05:22:28.123Z,29.65
2023-04-08T05:24:57.006Z,30.80
2023-04-08T05:27:24.545Z,30.53
2023-04-08T05:29:52.225Z,33.50
2023-04-08T05:32:19.878Z,29.35
2023-04-08T05:34:47.407Z,30.73
2023-04-08T05:37:14.952Z,28.33
2023-04-08T05:39:42.745Z,30.63
2023-04-08T05:42:13.752Z,33.78
2023-04-08T05:44:43.748Z,33.08
2023-04-08T05:47:11.446Z,32.75
2023-04-08T05:49:39.356Z,30.35
2023-04-08T05:52:07.033Z,33.63
2023-04-08T05:54:34.636Z,29.30
2023-04-08T05:57:02.233Z,31.63
2023-04-08T05:59:31.083Z,25.40
2023-04-08T06:01:58.763Z,23.90
2023-04-08T06:04:26.507Z,27.13
2023-04-08T06:06:54.150Z,25.75
2023-04-08T06:09:21.671Z,24.95
2023-04-08T06:11:50.668Z,23.30
2023-04-08T06:14:18.295Z,23.55
2023-04-08T06:16:47.515Z,23.77
2023-04-08T06:19:15.378Z,25.58
2023-04-08T06:21:43.053Z,24.27
2023-04-08T06:24:10.680Z,24.70
2023-04-08T06:26:38.253Z,25.08
2023-04-08T06:29:05.833Z,21.43
2023-04-08T06:31:33.434Z,23.42
2023-04-08T06:34:02.349Z,23.70
2023-04-08T06:36:29.936Z,22.98
2023-04-08T06:38:57.503Z,23.30
2023-04-08T06:41:25.069Z,24.33
2023-04-08T06:43:52.696Z,21.25
2023-04-08T06:46:20.858Z,24.27
2023-04-08T06:48:48.815Z,25.38
2023-04-08T06:51:17.807Z,21.73
2023-04-08T06:53:45.480Z,28.17
2023-04-08T06:56:13.036Z,25.60
2023-04-08T06:58:40.579Z,25.27
2023-04-08T07:01:08.165Z,27.63
2023-04-08T07:03:35.871Z,25.02
2023-04-08T07:06:04.511Z,27.00
2023-04-08T07:08:33.422Z,25.75
2023-04-08T07:11:01.050Z,29.50
2023-04-08T07:13:29.396Z,25.27
2023-04-08T07:15:56.961Z,25.77
2023-04-08T07:18:26.146Z,22.87
2023-04-08T07:20:54.242Z,23.02
2023-04-08T07:23:22.148Z,25.15
2023-04-08T07:25:51.455Z,23.48
2023-04-08T07:28:19.155Z,21.70
2023-04-08T07:30:46.974Z,23.23
2023-04-08T07:33:15.836Z,25.05
2023-04-08T07:35:43.658Z,20.88
2023-04-08T07:38:12.031Z,24.05
2023-04-08T07:40:39.644Z,22.35
2023-04-08T07:43:09.078Z,23.50
2023-04-08T07:45:36.689Z,23.00
2023-04-08T07:48:04.347Z,20.95
2023-04-08T07:50:32.188Z,24.67
2023-04-08T07:52:59.706Z,23.10
2023-04-08T07:55:27.304Z,20.17
2023-04-08T07:57:55.195Z,21.30
2023-04-08T08:00:24.477Z,23.52
2023-04-08T08:02:52.202Z,22.10
2023-04-08T08:05:20.044Z,22.77
2023-04-08T08:07:47.660Z,22.20
2023-04-08T08:10:15.307Z,24.48
2023-04-08T08:12:42.880Z,20.27
2023-04-08T08:15:11.524Z,20.73
2023-04-08T08:17:40.409Z,21.83
2023-04-08T08:20:09.053Z,24.13
2023-04-08T08:22:47.150Z,23.05
2023-04-08T08:25:25.948Z,23.38
2023-04-08T08:27:55.262Z,21.55
2023-04-08T08:30:22.857Z,21.15
2023-04-08T08:32:52.153Z,22.77
2023-04-08T08:35:19.830Z,24.05
2023-04-08T08:37:47.468Z,22.88
2023-04-08T08:40:15.795Z,28.15
2023-04-08T08:42:44.090Z,24.90
2023-04-08T08:45:11.694Z,23.40
2023-04-08T08:47:39.268Z,25.13
2023-04-08T08:50:08.940Z,25.45
2023-04-08T08:52:36.489Z,28.55
2023-04-08T08:55:16.807Z,26.25
2023-04-08T08:57:52.082Z,24.97
2023-04-08T09:00:19.818Z,24.00
2023-04-08T09:02:47.639Z,24.25
2023-04-08T09:05:17.169Z,23.73
2023-04-08T09:07:45.524Z,21.92
2023-04-08T09:10:13.084Z,19.67
2023-04-08T09:12:56.516Z,21.38
2023-04-08T09:15:24.110Z,23.52
2023-04-08T09:17:52.088Z,20.80
2023-04-08T09:20:21.139Z,23.98
2023-04-08T09:22:59.779Z,26.47
2023-04-08T09:25:28.979Z,28.05
2023-04-08T09:27:56.592Z,23.90
2023-04-08T09:30:25.957Z,23.73
2023-04-08T09:32:55.428Z,25.73
2023-04-08T09:35:25.565Z,24.37
2023-04-08T09:37:53.246Z,21.60
2023-04-08T09:40:21.209Z,22.95
2023-04-08T09:42:51.986Z,23.15
2023-04-08T09:45:20.438Z,21.40
2023-04-08T09:47:58.488Z,23.07
2023-04-08T09:50:33.560Z,25.10
2023-04-08T09:53:14.488Z,28.30
2023-04-08T09:55:45.104Z,22.50
2023-04-08T09:58:17.869Z,27.27
2023-04-08T10:00:51.028Z,24.53
2023-04-08T10:03:27.664Z,24.65
2023-04-08T10:05:57.451Z,21.25
2023-04-08T10:08:27.956Z,24.83
2023-04-08T10:10:56.186Z,25.10
2023-04-08T10:13:24.453Z,23.73
2023-04-08T10:16:19.811Z,22.63
2023-04-08T10:18:47.421Z,20.80
2023-04-08T10:21:34.495Z,20.75
2023-04-08T10:24:06.305Z,22.20
2023-04-08T10:26:36.332Z,22.27
2023-04-08T10:29:32.681Z,20.20
2023-04-08T10:32:01.449Z,22.63
2023-04-08T10:34:29.730Z,20.63
2023-04-08T10:37:01.977Z,23.33
2023-04-08T10:39:29.712Z,21.27
2023-04-08T10:41:57.464Z,25.08
2023-04-08T10:44:27.307Z,21.13
2023-04-08T10:46:55.678Z,21.13
2023-04-08T10:49:23.939Z,24.70
2023-04-08T10:51:52.323Z,24.70
2023-04-08T10:54:21.266Z,22.80
2023-04-08T10:56:50.833Z,22.17
2023-04-08T10:59:28.901Z,22.27
2023-04-08T11:01:57.135Z,21.52
2023-04-08T11:04:26.366Z,23.63
2023-04-08T11:06:54.054Z,24.02
2023-04-08T11:09:22.967Z,18.52
2023-04-08T11:11:51.464Z,23.35
2023-04-08T11:14:21.761Z,21.92
2023-04-08T11:16:49.637Z,20.33
2023-04-08T11:19:18.081Z,19.48
2023-04-08T11:21:46.738Z,20.65
2023-04-08T11:24:16.370Z,21.42
2023-04-08T11:26:45.559Z,18.55
2023-04-08T11:29:14.611Z,19.67
2023-04-08T11:31:43.542Z,21.05
2023-04-08T11:34:11.435Z,21.90
2023-04-08T11:36:41.800Z,24.17
2023-04-08T11:39:11.502Z,22.95
2023-04-08T11:41:40.516Z,23.70
2023-04-08T11:44:09.926Z,25.75
2023-04-08T11:46:37.899Z,24.40
2023-04-08T11:49:07.686Z,21.73
2023-04-08T11:51:37.754Z,24.08
2023-04-08T11:54:07.212Z,22.63
2023-04-08T11:56:47.038Z,21.38
2023-04-08T11:59:16.308Z,25.35
2023-04-08T12:01:44.161Z,22.08
2023-04-08T12:04:12.649Z,22.30
2023-04-08T12:06:43.356Z,24.37
2023-04-08T12:09:10.999Z,20.80
2023-04-08T12:11:38.556Z,22.83
2023-04-08T12:14:06.129Z,23.33
2023-04-08T12:16:35.157Z,26.98
2023-04-08T12:19:03.067Z,24.63
2023-04-08T12:21:30.558Z,21.20
2023-04-08T12:23:58.161Z,21.25
2023-04-08T12:26:27.074Z,23.45
2023-04-08T12:28:54.736Z,23.02
2023-04-08T12:31:23.196Z,21.27
2023-04-08T12:33:52.351Z,21.27
2023-04-08T12:36:20.358Z,22.33
2023-04-08T12:38:48.170Z,24.83
2023-04-08T12:41:15.938Z,21.80
2023-04-08T12:43:43.491Z,25.97
2023-04-08T12:46:11.059Z,26.33
2023-04-08T12:48:38.639Z,23.45
2023-04-08T12:51:10.086Z,21.23
2023-04-08T12:53:37.597Z,22.48
2023-04-08T12:56:05.756Z,23.00
2023-04-08T12:58:33.274Z,30.10
2023-04-08T13:01:01.024Z,22.50
2023-04-08T13:03:30.386Z,24.25
2023-04-08T13:05:58.973Z,21.88
2023-04-08T13:08:27.857Z,23.83
2023-04-08T13:10:55.521Z,28.33
2023-04-08T13:13:23.228Z,22.63
2023-04-08T13:15:50.903Z,30.65
2023-04-08T13:18:18.461Z,23.98
2023-04-08T13:20:46.164Z,25.47
2023-04-08T13:23:15.144Z,24.60
2023-04-08T13:25:45.476Z,26.45
2023-04-08T13:28:13.081Z,23.58
2023-04-08T13:30:40.821Z,30.70
2023-04-08T13:33:08.626Z,25.13
2023-04-08T13:35:36.581Z,24.00
2023-04-08T13:38:04.135Z,25.85
2023-04-08T13:40:31.925Z,26.73
2023-04-08T13:43:01.436Z,25.92
2023-04-08T13:45:28.989Z,28.73
2023-04-08T13:47:56.852Z,28.33
2023-04-08T13:50:24.649Z,33.65
2023-04-08T13:52:52.223Z,39.58
2023-04-08T13:55:19.915Z,37.58
2023-04-08T13:57:47.547Z,31.20
2023-04-08T14:00:16.790Z,25.17
2023-04-08T14:02:44.491Z,24.73
2023-04-08T14:05:12.338Z,22.67
2023-04-08T14:07:39.958Z,25.80
2023-04-08T14:10:08.988Z,30.97
2023-04-08T14:12:36.837Z,22.42
2023-04-08T14:15:05.090Z,28.88
2023-04-08T14:17:34.920Z,26.83
2023-04-08T14:20:02.780Z,22.20
2023-04-08T14:22:30.343Z,22.03
2023-04-08T14:24:57.895Z,25.30
2023-04-08T14:27:25.756Z,32.92
2023-04-08T14:29:53.319Z,35.88
2023-04-08T14:32:20.863Z,31.90
2023-04-08T14:34:50.117Z,49.90
2023-04-08T14:37:18.730Z,40.65
2023-04-08T14:39:46.474Z,44.67
2023-04-08T14:42:16.494Z,32.10
2023-04-08T14:44:44.209Z,27.50
2023-04-08T14:47:12.077Z,34.07
2023-04-08T14:49:39.736Z,27.02
2023-04-08T14:52:08.808Z,27.80
2023-04-08T14:54:36.553Z,26.75
2023-04-08T14:57:04.341Z,23.75
2023-04-08T14:59:32.340Z,22.37
2023-04-08T15:02:00.461Z,23.63
2023-04-08T15:04:28.128Z,25.42
2023-04-08T15:06:55.818Z,23.75
2023-04-08T15:09:24.962Z,27.95
2023-04-08T15:11:52.675Z,24.77
2023-04-08T15:14:20.354Z,30.83
2023-04-08T15:16:48.009Z,25.88
2023-04-08T15:19:16.072Z,25.60
2023-04-08T15:21:43.618Z,27.58
2023-04-08T15:24:11.279Z,28.33
2023-04-08T15:26:40.172Z,26.63
2023-04-08T15:29:07.802Z,26.83
2023-04-08T15:31:35.906Z,25.45
2023-04-08T15:34:03.630Z,24.33
2023-04-08T15:36:32.109Z,25.67
2023-04-08T15:38:59.715Z,28.58
2023-04-08T15:41:27.248Z,32.15
2023-04-08T15:43:56.146Z,28.45
2023-04-08T15:46:23.984Z,29.90
2023-04-08T15:48:51.832Z,34.40
2023-04-08T15:51:20.222Z,31.23
2023-04-08T15:53:47.779Z,30.20
2023-04-08T15:56:16.028Z,32.42
2023-04-08T15:58:43.879Z,24.98
2023-04-08T16:01:13.226Z,34.63
2023-04-08T16:03:40.939Z,29.08
2023-04-08T16:06:09.031Z,49.05
2023-04-08T16:08:37.046Z,89.32
2023-04-08T16:11:06.195Z,47.83
2023-04-08T16:13:34.132Z,35.93
2023-04-08T16:16:03.047Z,45.75
2023-04-08T16:18:32.196Z,49.38
2023-04-08T16:20:59.879Z,82.90
2023-04-08T16:23:27.442Z,66.10
2023-04-08T16:25:55.874Z,46.23
2023-04-08T16:28:23.584Z,32.70
2023-04-08T16:30:51.181Z,33.53
2023-04-08T16:33:18.701Z,30.20
2023-04-08T16:35:49.144Z,29.63
2023-04-08T16:38:16.788Z,26.87
2023-04-08T16:40:44.285Z,25.80
2023-04-08T16:43:12.789Z,28.13
2023-04-08T16:45:41.836Z,31.00
2023-04-08T16:48:09.657Z,31.77
2023-04-08T16:50:38.738Z,29.40
2023-04-08T16:53:07.748Z,40.33
2023-04-08T16:55:35.961Z,38.72
2023-04-08T16:58:04.645Z,36.45
2023-04-08T17:00:32.278Z,39.45
2023-04-08T17:03:00.545Z,35.30
2023-04-08T17:05:28.394Z,33.97
2023-04-08T17:07:57.570Z,34.83
2023-04-08T17:10:26.492Z,33.08
2023-04-08T17:12:54.077Z,37.38
2023-04-08T17:15:21.647Z,43.37
2023-04-08T17:17:49.226Z,39.70
2023-04-08T17:20:17.025Z,37.50
2023-04-08T17:22:44.581Z,39.45
2023-04-08T17:25:12.822Z,39.58
2023-04-08T17:27:41.729Z,38.23
2023-04-08T17:30:11.404Z,38.88
2023-04-08T17:32:39.222Z,42.78
2023-04-08T17:35:07.390Z,46.60
2023-04-08T17:37:34.965Z,36.42
2023-04-08T17:40:02.920Z,49.10
2023-04-08T17:42:30.463Z,31.30
2023-04-08T17:45:01.553Z,28.23
2023-04-08T17:47:29.212Z,27.08
2023-04-08T17:49:56.986Z,27.90
2023-04-08T17:52:24.696Z,31.43
2023-04-08T17:54:52.217Z,31.67
2023-04-08T17:57:19.764Z,30.58
2023-04-08T17:59:47.672Z,32.83
2023-04-08T18:02:16.633Z,41.03
2023-04-08T18:04:44.530Z,44.37
2023-04-08T18:07:12.039Z,42.90
2023-04-08T18:09:40.771Z,43.55
2023-04-08T18:12:08.273Z,40.42
2023-04-08T18:14:36.665Z,38.63
2023-04-08T18:17:04.398Z,40.83
2023-04-08T18:19:33.283Z,50.30
2023-04-08T18:22:00.800Z,51.72
2023-04-08T18:24:28.317Z,53.65
2023-04-08T18:27:04.052Z,51.58
2023-04-08T18:29:32.167Z,51.13
2023-04-08T18:31:59.729Z,53.92
2023-04-08T18:34:27.297Z,77.22
2023-04-08T18:36:56.162Z,73.47
2023-04-08T18:39:23.983Z,71.78
2023-04-08T18:41:51.506Z,62.80
2023-04-08T18:44:19.101Z,66.75
2023-04-08T18:46:46.622Z,55.65
2023-04-08T18:49:14.185Z,55.33
2023-04-08T18:51:46.383Z,55.55
2023-04-08T18:54:24.273Z,54.30
2023-04-08T18:56:51.773Z,54.80
2023-04-08T18:59:19.366Z,62.72
2023-04-08T19:01:47.012Z,56.25
2023-04-08T19:04:14.618Z,62.90
2023-04-08T19:06:42.491Z,70.47
2023-04-08T19:09:10.058Z,72.50
2023-04-08T19:11:38.956Z,77.18
2023-04-08T19:14:07.682Z,88.45
2023-04-08T19:16:35.492Z,81.43
2023-04-08T19:19:03.465Z,73.80
2023-04-08T19:21:32.653Z,68.30
2023-04-08T19:24:00.148Z,67.63
2023-04-08T19:26:27.701Z,75.03
2023-04-08T19:28:56.622Z,61.53
2023-04-08T19:31:24.495Z,61.50
2023-04-08T19:33:52.260Z,63.03
2023-04-08T19:36:20.080Z,74.88
2023-04-08T19:38:47.853Z,73.95
2023-04-08T19:41:15.444Z,66.93
2023-04-08T19:43:42.922Z,63.00
2023-04-08T19:46:12.062Z,62.15
2023-04-08T19:48:39.615Z,64.80
2023-04-08T19:51:07.560Z,65.13
2023-04-08T19:53:35.161Z,59.25
2023-04-08T19:56:03.438Z,58.50
2023-04-08T19:58:31.176Z,80.18
2023-04-08T20:00:58.720Z,69.30
2023-04-08T20:03:27.835Z,67.35
2023-04-08T20:05:55.718Z,64.40
2023-04-08T20:08:23.244Z,65.87
2023-04-08T20:10:51.197Z,61.53
2023-04-08T20:13:18.792Z,60.00
2023-04-08T20:15:46.375Z,65.60
2023-04-08T20:18:16.146Z,67.15
2023-04-08T20:20:46.730Z,72.60
2023-04-08T20:23:14.568Z,83.65
2023-04-08T20:25:42.323Z,83.07
2023-04-08T20:28:10.100Z,88.43
2023-04-08T20:30:37.813Z,80.60
2023-04-08T20:33:05.404Z,76.40
2023-04-08T20:35:33.208Z,84.63
2023-04-08T20:38:02.484Z,89.93
2023-04-08T20:40:30.037Z,108.15
2023-04-08T20:42:57.619Z,96.50
2023-04-08T20:45:25.477Z,114.70
2023-04-08T20:47:53.958Z,100.55
2023-04-08T20:50:21.858Z,94.35
2023-04-08T20:52:49.354Z,95.00
2023-04-08T20:55:18.421Z,88.10
2023-04-08T20:57:47.741Z,86.13
2023-04-08T21:00:16.900Z,91.32
2023-04-08T21:02:44.831Z,93.35
2023-04-08T21:05:12.429Z,91.43
2023-04-08T21:07:44.176Z,83.20
2023-04-08T21:10:12.840Z,85.53
2023-04-08T21:12:41.713Z,85.00
2023-04-08T21:15:10.592Z,81.28
2023-04-08T21:17:38.103Z,79.07
2023-04-08T21:20:06.996Z,79.18
2023-04-08T21:22:34.567Z,74.50
2023-04-08T21:25:02.122Z,73.40
2023-04-08T21:27:29.829Z,78.05
2023-04-08T21:29:58.745Z,80.93
2023-04-08T21:32:28.742Z,79.93
2023-04-08T21:34:57.586Z,82.10
2023-04-08T21:37:25.266Z,79.07
2023-04-08T21:39:53.745Z,80.47
2023-04-08T21:42:22.802Z,76.68
2023-04-08T21:44:50.432Z,83.85
2023-04-08T21:47:19.322Z,76.47
2023-04-08T21:49:46.895Z,79.70
2023-04-08T21:52:14.452Z,69.57
2023-04-08T21:54:42.021Z,74.32
2023-04-08T21:57:09.557Z,77.38
2023-04-08T21:59:37.123Z,77.77
2023-04-08T22:02:04.718Z,74.70
2023-04-08T22:04:34.579Z,74.93
2023-04-08T22:07:02.220Z,76.75
2023-04-08T22:09:29.768Z,79.90
2023-04-08T22:11:57.827Z,74.33
2023-04-08T22:14:25.535Z,81.60
2023-04-08T22:16:53.219Z,77.47
2023-04-08T22:19:20.836Z,84.15
2023-04-08T22:21:50.950Z,86.38
2023-04-08T22:24:18.586Z,87.97
2023-04-08T22:26:46.228Z,89.53
2023-04-08T22:29:13.787Z,80.00
2023-04-08T22:31:41.326Z,85.13
2023-04-08T22:34:08.845Z,79.88
2023-04-08T22:36:36.421Z,87.90
2023-04-08T22:39:05.308Z,87.85
2023-04-08T22:41:32.820Z,86.25
2023-04-08T22:44:00.518Z,86.20
2023-04-08T22:46:28.062Z,81.90
2023-04-08T22:48:55.613Z,84.63
2023-04-08T22:51:23.323Z,81.10
2023-04-08T22:53:51.114Z,75.13
2023-04-08T22:56:20.047Z,83.07
2023-04-08T22:58:47.563Z,82.28
2023-04-08T23:01:17.348Z,74.30
2023-04-08T23:03:45.116Z,79.68
2023-04-08T23:06:12.743Z,77.25
2023-04-08T23:08:40.554Z,77.22
2023-04-08T23:11:08.264Z,88.32
2023-04-08T23:13:37.170Z,88.73
2023-04-08T23:16:04.915Z,83.75
2023-04-08T23:18:32.508Z,77.75
2023-04-08T23:21:00.068Z,78.90
2023-04-08T23:23:27.608Z,80.78
2023-04-08T23:25:55.817Z,75.63
2023-04-08T23:28:23.699Z,75.97
2023-04-08T23:30:52.634Z,76.38
2023-04-08T23:33:20.258Z,77.15
2023-04-08T23:35:47.835Z,81.90
2023-04-08T23:38:15.426Z,80.87
2023-04-08T23:40:42.990Z,82.32
2023-04-08T23:43:10.507Z,83.13
2023-04-08T23:45:38.148Z,77.15
2023-04-08T23:48:10.033Z,80.38
2023-04-08T23:50:37.897Z,71.40
2023-04-08T23:53:05.441Z,84.18
2023-04-08T23:55:32.980Z,76.38
2023-04-08T23:58:00.540Z,84.20
